sensor_id;sensor_type;location;lat;lon;timestamp;P1;durP1;ratioP1;P2;durP2;ratioP2
18793;SDS011;29610;49.022;12.114;2023-02-18T00:00:11;6.40;;;1.50;;
18793;SDS011;29610;49.022;12.114;2023-02-18T00:02:44;6.00;;;1.60;;
18793;SDS011;29610;49.022;12.114;2023-02-18T00:05:15;5.97;;;1.60;;
18793;SDS011;29610;49.022;12.114;2023-02-18T00:07:45;5.87;;;1.73;;
18793;SDS011;29610;49.022;12.114;2023-02-18T00:10:14;7.87;;;1.80;;
18793;SDS011;29610;49.022;12.114;2023-02-18T00:12:44;5.70;;;1.67;;
18793;SDS011;29610;49.022;12.114;2023-02-18T00:15:13;5.90;;;1.67;;
18793;SDS011;29610;49.022;12.114;2023-02-18T00:17:42;8.70;;;1.70;;
18793;SDS011;29610;49.022;12.114;2023-02-18T00:20:10;5.60;;;1.30;;
18793;SDS011;29610;49.022;12.114;2023-02-18T00:22:39;5.93;;;1.50;;
18793;SDS011;29610;49.022;12.114;2023-02-18T00:25:08;6.70;;;1.70;;
18793;SDS011;29610;49.022;12.114;2023-02-18T00:27:37;6.10;;;1.60;;
18793;SDS011;29610;49.022;12.114;2023-02-18T00:30:07;6.30;;;1.70;;
18793;SDS011;29610;49.022;12.114;2023-02-18T00:32:37;5.97;;;1.50;;
18793;SDS011;29610;49.022;12.114;2023-02-18T00:35:06;5.93;;;1.60;;
18793;SDS011;29610;49.022;12.114;2023-02-18T00:37:35;5.80;;;1.50;;
18793;SDS011;29610;49.022;12.114;2023-02-18T00:40:04;8.77;;;1.63;;
18793;SDS011;29610;49.022;12.114;2023-02-18T00:42:34;7.70;;;2.00;;
18793;SDS011;29610;49.022;12.114;2023-02-18T00:45:03;6.20;;;1.30;;
18793;SDS011;29610;49.022;12.114;2023-02-18T00:47:34;5.50;;;1.40;;
18793;SDS011;29610;49.022;12.114;2023-02-18T00:50:03;7.00;;;2.20;;
18793;SDS011;29610;49.022;12.114;2023-02-18T00:52:32;7.13;;;2.10;;
18793;SDS011;29610;49.022;12.114;2023-02-18T00:55:01;6.43;;;1.70;;
18793;SDS011;29610;49.022;12.114;2023-02-18T00:57:31;8.73;;;1.90;;
18793;SDS011;29610;49.022;12.114;2023-02-18T01:00:00;6.43;;;2.10;;
18793;SDS011;29610;49.022;12.114;2023-02-18T01:02:29;5.93;;;1.33;;
18793;SDS011;29610;49.022;12.114;2023-02-18T01:04:59;5.83;;;1.43;;
18793;SDS011;29610;49.022;12.114;2023-02-18T01:07:28;6.60;;;1.80;;
18793;SDS011;29610;49.022;12.114;2023-02-18T01:09:58;6.00;;;1.80;;
18793;SDS011;29610;49.022;12.114;2023-02-18T01:12:27;7.00;;;1.80;;
18793;SDS011;29610;49.022;12.114;2023-02-18T01:14:55;5.63;;;1.57;;
18793;SDS011;29610;49.022;12.114;2023-02-18T01:17:24;7.77;;;1.70;;
18793;SDS011;29610;49.022;12.114;2023-02-18T01:19:53;7.20;;;1.60;;
18793;SDS011;29610;49.022;12.114;2023-02-18T01:22:23;5.60;;;1.57;;
18793;SDS011;29610;49.022;12.114;2023-02-18T01:24:52;5.80;;;1.73;;
18793;SDS011;29610;49.022;12.114;2023-02-18T01:27:20;9.43;;;2.07;;
18793;SDS011;29610;49.022;12.114;2023-02-18T01:29:49;7.43;;;1.83;;
18793;SDS011;29610;49.022;12.114;2023-02-18T01:32:17;5.70;;;1.50;;
18793;SDS011;29610;49.022;12.114;2023-02-18T01:34:47;6.50;;;1.27;;
18793;SDS011;29610;49.022;12.114;2023-02-18T01:37:16;5.93;;;1.90;;
18793;SDS011;29610;49.022;12.114;2023-02-18T01:39:46;5.53;;;1.50;;
18793;SDS011;29610;49.022;12.114;2023-02-18T01:42:17;6.00;;;1.67;;
18793;SDS011;29610;49.022;12.114;2023-02-18T01:44:48;5.40;;;1.60;;
18793;SDS011;29610;49.022;12.114;2023-02-18T01:47:18;5.73;;;1.47;;
18793;SDS011;29610;49.022;12.114;2023-02-18T01:49:51;6.03;;;1.30;;
18793;SDS011;29610;49.022;12.114;2023-02-18T01:52:21;8.53;;;1.57;;
18793;SDS011;29610;49.022;12.114;2023-02-18T01:54:55;5.67;;;1.47;;
18793;SDS011;29610;49.022;12.114;2023-02-18T01:57:28;5.20;;;1.30;;
18793;SDS011;29610;49.022;12.114;2023-02-18T02:00:04;5.40;;;1.40;;
18793;SDS011;29610;49.022;12.114;2023-02-18T02:02:43;6.00;;;1.60;;
18793;SDS011;29610;49.022;12.114;2023-02-18T02:05:13;5.70;;;1.23;;
18793;SDS011;29610;49.022;12.114;2023-02-18T02:07:44;6.70;;;1.60;;
18793;SDS011;29610;49.022;12.114;2023-02-18T02:10:19;5.97;;;1.77;;
18793;SDS011;29610;49.022;12.114;2023-02-18T02:12:51;6.30;;;1.70;;
18793;SDS011;29610;49.022;12.114;2023-02-18T02:15:33;6.30;;;1.37;;
18793;SDS011;29610;49.022;12.114;2023-02-18T02:18:21;5.73;;;1.30;;
18793;SDS011;29610;49.022;12.114;2023-02-18T02:21:24;5.70;;;1.50;;
18793;SDS011;29610;49.022;12.114;2023-02-18T02:24:24;5.67;;;1.40;;
18793;SDS011;29610;49.022;12.114;2023-02-18T02:27:50;6.10;;;1.93;;
18793;SDS011;29610;49.022;12.114;2023-02-18T02:31:10;5.77;;;1.70;;
18793;SDS011;29610;49.022;12.114;2023-02-18T02:34:34;6.67;;;2.00;;
18793;SDS011;29610;49.022;12.114;2023-02-18T02:37:25;6.70;;;1.63;;
18793;SDS011;29610;49.022;12.114;2023-02-18T02:40:06;5.90;;;1.47;;
18793;SDS011;29610;49.022;12.114;2023-02-18T02:42:50;5.77;;;1.40;;
18793;SDS011;29610;49.022;12.114;2023-02-18T02:45:36;8.03;;;1.97;;
18793;SDS011;29610;49.022;12.114;2023-02-18T02:48:20;6.60;;;1.83;;
18793;SDS011;29610;49.022;12.114;2023-02-18T02:51:03;5.60;;;1.50;;
18793;SDS011;29610;49.022;12.114;2023-02-18T02:53:40;6.10;;;1.67;;
18793;SDS011;29610;49.022;12.114;2023-02-18T02:56:12;6.90;;;2.20;;
18793;SDS011;29610;49.022;12.114;2023-02-18T02:58:43;6.40;;;1.80;;
18793;SDS011;29610;49.022;12.114;2023-02-18T03:01:23;5.40;;;1.50;;
18793;SDS011;29610;49.022;12.114;2023-02-18T03:04:13;5.80;;;1.80;;
18793;SDS011;29610;49.022;12.114;2023-02-18T03:07:12;5.80;;;1.47;;
18793;SDS011;29610;49.022;12.114;2023-02-18T03:10:24;10.17;;;1.73;;
18793;SDS011;29610;49.022;12.114;2023-02-18T03:13:13;5.73;;;1.70;;
18793;SDS011;29610;49.022;12.114;2023-02-18T03:15:56;5.53;;;1.40;;
18793;SDS011;29610;49.022;12.114;2023-02-18T03:18:41;6.07;;;1.83;;
18793;SDS011;29610;49.022;12.114;2023-02-18T03:21:20;5.77;;;1.77;;
18793;SDS011;29610;49.022;12.114;2023-02-18T03:23:58;5.80;;;1.57;;
18793;SDS011;29610;49.022;12.114;2023-02-18T03:26:33;6.57;;;1.80;;
18793;SDS011;29610;49.022;12.114;2023-02-18T03:29:08;6.73;;;1.73;;
18793;SDS011;29610;49.022;12.114;2023-02-18T03:31:40;6.90;;;1.70;;
18793;SDS011;29610;49.022;12.114;2023-02-18T03:34:17;6.10;;;1.70;;
18793;SDS011;29610;49.022;12.114;2023-02-18T03:36:53;6.57;;;1.63;;
18793;SDS011;29610;49.022;12.114;2023-02-18T03:39:26;5.60;;;1.50;;
18793;SDS011;29610;49.022;12.114;2023-02-18T03:41:57;5.83;;;1.67;;
18793;SDS011;29610;49.022;12.114;2023-02-18T03:44:25;6.30;;;1.90;;
18793;SDS011;29610;49.022;12.114;2023-02-18T03:46:54;6.13;;;1.87;;
18793;SDS011;29610;49.022;12.114;2023-02-18T03:49:23;6.80;;;1.90;;
18793;SDS011;29610;49.022;12.114;2023-02-18T03:51:52;6.07;;;1.67;;
18793;SDS011;29610;49.022;12.114;2023-02-18T03:54:20;6.60;;;1.77;;
18793;SDS011;29610;49.022;12.114;2023-02-18T03:56:50;7.00;;;2.00;;
18793;SDS011;29610;49.022;12.114;2023-02-18T03:59:19;6.10;;;1.83;;
18793;SDS011;29610;49.022;12.114;2023-02-18T04:01:47;7.60;;;2.03;;
18793;SDS011;29610;49.022;12.114;2023-02-18T04:04:16;5.37;;;1.60;;
18793;SDS011;29610;49.022;12.114;2023-02-18T04:06:44;5.47;;;1.50;;
18793;SDS011;29610;49.022;12.114;2023-02-18T04:09:13;6.60;;;1.60;;
18793;SDS011;29610;49.022;12.114;2023-02-18T04:11:42;5.70;;;1.43;;
18793;SDS011;29610;49.022;12.114;2023-02-18T04:14:13;9.33;;;1.77;;
18793;SDS011;29610;49.022;12.114;2023-02-18T04:16:42;5.50;;;1.53;;
18793;SDS011;29610;49.022;12.114;2023-02-18T04:19:11;5.53;;;1.43;;
18793;SDS011;29610;49.022;12.114;2023-02-18T04:21:39;5.27;;;1.47;;
18793;SDS011;29610;49.022;12.114;2023-02-18T04:24:08;7.30;;;1.60;;
18793;SDS011;29610;49.022;12.114;2023-02-18T04:26:36;8.50;;;1.47;;
18793;SDS011;29610;49.022;12.114;2023-02-18T04:29:05;5.47;;;1.30;;
18793;SDS011;29610;49.022;12.114;2023-02-18T04:31:35;5.60;;;1.73;;
18793;SDS011;29610;49.022;12.114;2023-02-18T04:34:04;5.63;;;1.33;;
18793;SDS011;29610;49.022;12.114;2023-02-18T04:36:33;6.30;;;1.80;;
18793;SDS011;29610;49.022;12.114;2023-02-18T04:39:02;5.70;;;1.60;;
18793;SDS011;29610;49.022;12.114;2023-02-18T04:41:32;7.53;;;1.67;;
18793;SDS011;29610;49.022;12.114;2023-02-18T04:44:01;6.20;;;1.70;;
18793;SDS011;29610;49.022;12.114;2023-02-18T04:46:30;5.40;;;1.20;;
18793;SDS011;29610;49.022;12.114;2023-02-18T04:49:01;5.70;;;1.33;;
18793;SDS011;29610;49.022;12.114;2023-02-18T04:51:29;5.50;;;1.60;;
18793;SDS011;29610;49.022;12.114;2023-02-18T04:53:58;6.40;;;1.80;;
18793;SDS011;29610;49.022;12.114;2023-02-18T04:56:27;7.33;;;1.70;;
18793;SDS011;29610;49.022;12.114;2023-02-18T04:58:56;5.70;;;1.80;;
18793;SDS011;29610;49.022;12.114;2023-02-18T05:01:24;5.70;;;1.73;;
18793;SDS011;29610;49.022;12.114;2023-02-18T05:03:53;5.87;;;1.53;;
18793;SDS011;29610;49.022;12.114;2023-02-18T05:06:23;6.30;;;2.20;;
18793;SDS011;29610;49.022;12.114;2023-02-18T05:08:52;6.20;;;2.00;;
18793;SDS011;29610;49.022;12.114;2023-02-18T05:11:20;5.53;;;1.37;;
18793;SDS011;29610;49.022;12.114;2023-02-18T05:13:49;5.87;;;1.73;;
18793;SDS011;29610;49.022;12.114;2023-02-18T05:16:17;5.40;;;1.30;;
18793;SDS011;29610;49.022;12.114;2023-02-18T05:18:46;5.77;;;1.70;;
18793;SDS011;29610;49.022;12.114;2023-02-18T05:21:15;6.00;;;1.90;;
18793;SDS011;29610;49.022;12.114;2023-02-18T05:23:45;6.17;;;1.87;;
18793;SDS011;29610;49.022;12.114;2023-02-18T05:26:13;7.00;;;1.97;;
18793;SDS011;29610;49.022;12.114;2023-02-18T05:28:42;6.17;;;1.90;;
18793;SDS011;29610;49.022;12.114;2023-02-18T05:31:11;5.73;;;1.57;;
18793;SDS011;29610;49.022;12.114;2023-02-18T05:33:40;5.93;;;1.73;;
18793;SDS011;29610;49.022;12.114;2023-02-18T05:36:08;6.20;;;1.80;;
18793;SDS011;29610;49.022;12.114;2023-02-18T05:38:37;9.30;;;1.53;;
18793;SDS011;29610;49.022;12.114;2023-02-18T05:41:07;6.43;;;1.90;;
18793;SDS011;29610;49.022;12.114;2023-02-18T05:43:36;7.33;;;1.80;;
18793;SDS011;29610;49.022;12.114;2023-02-18T05:46:18;6.23;;;2.10;;
18793;SDS011;29610;49.022;12.114;2023-02-18T05:48:47;6.30;;;1.90;;
18793;SDS011;29610;49.022;12.114;2023-02-18T05:51:16;6.43;;;2.03;;
18793;SDS011;29610;49.022;12.114;2023-02-18T05:53:45;6.97;;;1.87;;
18793;SDS011;29610;49.022;12.114;2023-02-18T05:56:15;6.93;;;2.20;;
18793;SDS011;29610;49.022;12.114;2023-02-18T05:58:43;7.27;;;2.30;;
18793;SDS011;29610;49.022;12.114;2023-02-18T06:01:12;7.13;;;2.50;;
18793;SDS011;29610;49.022;12.114;2023-02-18T06:03:41;8.70;;;2.80;;
18793;SDS011;29610;49.022;12.114;2023-02-18T06:06:09;10.50;;;2.50;;
18793;SDS011;29610;49.022;12.114;2023-02-18T06:08:38;8.03;;;2.27;;
18793;SDS011;29610;49.022;12.114;2023-02-18T06:11:06;6.50;;;2.20;;
18793;SDS011;29610;49.022;12.114;2023-02-18T06:13:36;9.07;;;2.20;;
18793;SDS011;29610;49.022;12.114;2023-02-18T06:16:05;5.93;;;1.97;;
18793;SDS011;29610;49.022;12.114;2023-02-18T06:18:34;7.30;;;2.57;;
18793;SDS011;29610;49.022;12.114;2023-02-18T06:21:03;6.60;;;2.30;;
18793;SDS011;29610;49.022;12.114;2023-02-18T06:23:32;6.87;;;2.30;;
18793;SDS011;29610;49.022;12.114;2023-02-18T06:26:01;7.20;;;2.57;;
18793;SDS011;29610;49.022;12.114;2023-02-18T06:28:30;10.23;;;2.27;;
18793;SDS011;29610;49.022;12.114;2023-02-18T06:31:00;7.03;;;2.50;;
18793;SDS011;29610;49.022;12.114;2023-02-18T06:33:29;8.47;;;2.60;;
18793;SDS011;29610;49.022;12.114;2023-02-18T06:35:58;7.10;;;2.50;;
18793;SDS011;29610;49.022;12.114;2023-02-18T06:38:33;7.10;;;2.83;;
18793;SDS011;29610;49.022;12.114;2023-02-18T06:41:02;7.23;;;2.77;;
18793;SDS011;29610;49.022;12.114;2023-02-18T06:43:31;6.90;;;2.43;;
18793;SDS011;29610;49.022;12.114;2023-02-18T06:46:02;7.20;;;2.87;;
18793;SDS011;29610;49.022;12.114;2023-02-18T06:48:32;8.07;;;2.70;;
18793;SDS011;29610;49.022;12.114;2023-02-18T06:51:01;7.60;;;3.40;;
18793;SDS011;29610;49.022;12.114;2023-02-18T06:53:29;7.70;;;3.00;;
18793;SDS011;29610;49.022;12.114;2023-02-18T06:55:58;7.30;;;2.80;;
18793;SDS011;29610;49.022;12.114;2023-02-18T06:58:27;7.70;;;3.30;;
18793;SDS011;29610;49.022;12.114;2023-02-18T07:00:55;7.13;;;3.07;;
18793;SDS011;29610;49.022;12.114;2023-02-18T07:03:25;7.27;;;2.90;;
18793;SDS011;29610;49.022;12.114;2023-02-18T07:05:54;7.67;;;3.40;;
18793;SDS011;29610;49.022;12.114;2023-02-18T07:08:23;6.60;;;2.60;;
18793;SDS011;29610;49.022;12.114;2023-02-18T07:10:52;7.90;;;3.27;;
18793;SDS011;29610;49.022;12.114;2023-02-18T07:13:21;7.93;;;3.30;;
18793;SDS011;29610;49.022;12.114;2023-02-18T07:15:50;8.40;;;3.50;;
18793;SDS011;29610;49.022;12.114;2023-02-18T07:18:18;9.87;;;3.60;;
18793;SDS011;29610;49.022;12.114;2023-02-18T07:20:48;10.37;;;4.20;;
18793;SDS011;29610;49.022;12.114;2023-02-18T07:23:18;11.77;;;4.37;;
18793;SDS011;29610;49.022;12.114;2023-02-18T07:25:47;9.63;;;4.17;;
18793;SDS011;29610;49.022;12.114;2023-02-18T07:28:15;7.93;;;3.77;;
18793;SDS011;29610;49.022;12.114;2023-02-18T07:30:44;10.40;;;4.60;;
18793;SDS011;29610;49.022;12.114;2023-02-18T07:33:13;10.23;;;4.67;;
18793;SDS011;29610;49.022;12.114;2023-02-18T07:35:41;9.33;;;3.90;;
18793;SDS011;29610;49.022;12.114;2023-02-18T07:38:11;11.10;;;4.97;;
18793;SDS011;29610;49.022;12.114;2023-02-18T07:40:40;10.53;;;4.37;;
18793;SDS011;29610;49.022;12.114;2023-02-18T07:43:12;11.90;;;4.30;;
18793;SDS011;29610;49.022;12.114;2023-02-18T07:45:41;11.00;;;4.70;;
18793;SDS011;29610;49.022;12.114;2023-02-18T07:48:09;9.67;;;4.37;;
18793;SDS011;29610;49.022;12.114;2023-02-18T07:50:39;8.83;;;3.70;;
18793;SDS011;29610;49.022;12.114;2023-02-18T07:53:11;9.00;;;4.33;;
18793;SDS011;29610;49.022;12.114;2023-02-18T07:55:44;9.03;;;3.90;;
18793;SDS011;29610;49.022;12.114;2023-02-18T07:58:16;11.57;;;3.70;;
18793;SDS011;29610;49.022;12.114;2023-02-18T08:00:49;8.00;;;3.30;;
18793;SDS011;29610;49.022;12.114;2023-02-18T08:03:19;8.60;;;3.80;;
18793;SDS011;29610;49.022;12.114;2023-02-18T08:05:53;8.40;;;3.87;;
18793;SDS011;29610;49.022;12.114;2023-02-18T08:08:25;9.20;;;3.40;;
18793;SDS011;29610;49.022;12.114;2023-02-18T08:10:57;9.57;;;3.83;;
18793;SDS011;29610;49.022;12.114;2023-02-18T08:13:42;7.53;;;3.30;;
18793;SDS011;29610;49.022;12.114;2023-02-18T08:16:13;9.37;;;3.83;;
18793;SDS011;29610;49.022;12.114;2023-02-18T08:18:42;10.23;;;3.53;;
18793;SDS011;29610;49.022;12.114;2023-02-18T08:21:13;8.77;;;4.90;;
18793;SDS011;29610;49.022;12.114;2023-02-18T08:23:45;8.73;;;3.30;;
18793;SDS011;29610;49.022;12.114;2023-02-18T08:26:15;8.30;;;3.30;;
18793;SDS011;29610;49.022;12.114;2023-02-18T08:28:45;8.20;;;3.70;;
18793;SDS011;29610;49.022;12.114;2023-02-18T08:31:15;9.30;;;3.60;;
18793;SDS011;29610;49.022;12.114;2023-02-18T08:33:47;14.20;;;6.40;;
18793;SDS011;29610;49.022;12.114;2023-02-18T08:36:17;18.87;;;9.00;;
18793;SDS011;29610;49.022;12.114;2023-02-18T08:38:47;21.10;;;11.07;;
18793;SDS011;29610;49.022;12.114;2023-02-18T08:41:16;8.97;;;3.20;;
18793;SDS011;29610;49.022;12.114;2023-02-18T08:43:46;9.00;;;3.20;;
18793;SDS011;29610;49.022;12.114;2023-02-18T08:46:15;10.07;;;4.60;;
18793;SDS011;29610;49.022;12.114;2023-02-18T08:49:00;9.53;;;4.43;;
18793;SDS011;29610;49.022;12.114;2023-02-18T08:51:30;9.50;;;3.60;;
18793;SDS011;29610;49.022;12.114;2023-02-18T08:54:01;10.30;;;4.33;;
18793;SDS011;29610;49.022;12.114;2023-02-18T08:56:30;7.13;;;2.50;;
18793;SDS011;29610;49.022;12.114;2023-02-18T08:58:59;7.83;;;2.40;;
18793;SDS011;29610;49.022;12.114;2023-02-18T09:01:27;7.50;;;2.50;;
18793;SDS011;29610;49.022;12.114;2023-02-18T09:03:56;13.37;;;2.73;;
18793;SDS011;29610;49.022;12.114;2023-02-18T09:06:25;6.43;;;1.93;;
18793;SDS011;29610;49.022;12.114;2023-02-18T09:08:54;6.70;;;1.97;;
18793;SDS011;29610;49.022;12.114;2023-02-18T09:11:24;6.93;;;2.10;;
18793;SDS011;29610;49.022;12.114;2023-02-18T09:13:53;6.10;;;2.20;;
18793;SDS011;29610;49.022;12.114;2023-02-18T09:16:22;6.63;;;2.33;;
18793;SDS011;29610;49.022;12.114;2023-02-18T09:18:52;8.53;;;2.00;;
18793;SDS011;29610;49.022;12.114;2023-02-18T09:21:21;6.23;;;1.90;;
18793;SDS011;29610;49.022;12.114;2023-02-18T09:23:50;6.20;;;1.60;;
18793;SDS011;29610;49.022;12.114;2023-02-18T09:26:20;7.40;;;1.83;;
18793;SDS011;29610;49.022;12.114;2023-02-18T09:28:52;6.20;;;1.53;;
18793;SDS011;29610;49.022;12.114;2023-02-18T09:31:23;8.20;;;2.17;;
18793;SDS011;29610;49.022;12.114;2023-02-18T09:33:55;6.03;;;1.53;;
18793;SDS011;29610;49.022;12.114;2023-02-18T09:36:28;6.40;;;1.90;;
18793;SDS011;29610;49.022;12.114;2023-02-18T09:38:57;6.20;;;1.60;;
18793;SDS011;29610;49.022;12.114;2023-02-18T09:41:32;7.10;;;1.77;;
18793;SDS011;29610;49.022;12.114;2023-02-18T09:44:10;6.00;;;1.60;;
18793;SDS011;29610;49.022;12.114;2023-02-18T09:46:47;6.10;;;1.50;;
18793;SDS011;29610;49.022;12.114;2023-02-18T09:49:21;6.03;;;1.67;;
18793;SDS011;29610;49.022;12.114;2023-02-18T09:51:54;8.03;;;1.60;;
18793;SDS011;29610;49.022;12.114;2023-02-18T09:54:27;7.53;;;2.10;;
18793;SDS011;29610;49.022;12.114;2023-02-18T09:56:56;6.57;;;1.73;;
18793;SDS011;29610;49.022;12.114;2023-02-18T09:59:28;6.87;;;1.70;;
18793;SDS011;29610;49.022;12.114;2023-02-18T10:01:58;6.70;;;1.60;;
18793;SDS011;29610;49.022;12.114;2023-02-18T10:04:29;6.23;;;1.47;;
18793;SDS011;29610;49.022;12.114;2023-02-18T10:07:07;7.20;;;2.00;;
18793;SDS011;29610;49.022;12.114;2023-02-18T10:09:47;7.93;;;1.93;;
18793;SDS011;29610;49.022;12.114;2023-02-18T10:12:19;6.63;;;1.63;;
18793;SDS011;29610;49.022;12.114;2023-02-18T10:14:52;6.60;;;1.80;;
18793;SDS011;29610;49.022;12.114;2023-02-18T10:17:25;6.70;;;1.57;;
18793;SDS011;29610;49.022;12.114;2023-02-18T10:19:58;6.20;;;1.60;;
18793;SDS011;29610;49.022;12.114;2023-02-18T10:22:34;6.07;;;1.60;;
18793;SDS011;29610;49.022;12.114;2023-02-18T10:25:05;6.80;;;1.63;;
18793;SDS011;29610;49.022;12.114;2023-02-18T10:27:36;6.33;;;1.93;;
18793;SDS011;29610;49.022;12.114;2023-02-18T10:30:19;6.67;;;1.80;;
18793;SDS011;29610;49.022;12.114;2023-02-18T10:32:53;6.90;;;1.87;;
18793;SDS011;29610;49.022;12.114;2023-02-18T10:35:28;6.30;;;1.63;;
18793;SDS011;29610;49.022;12.114;2023-02-18T10:38:04;7.67;;;2.00;;
18793;SDS011;29610;49.022;12.114;2023-02-18T10:40:47;7.17;;;1.73;;
18793;SDS011;29610;49.022;12.114;2023-02-18T10:43:29;6.10;;;1.50;;
18793;SDS011;29610;49.022;12.114;2023-02-18T10:46:12;6.17;;;1.50;;
18793;SDS011;29610;49.022;12.114;2023-02-18T10:48:56;6.73;;;1.80;;
18793;SDS011;29610;49.022;12.114;2023-02-18T10:51:47;6.50;;;1.40;;
18793;SDS011;29610;49.022;12.114;2023-02-18T10:54:22;6.30;;;1.70;;
18793;SDS011;29610;49.022;12.114;2023-02-18T10:56:57;7.53;;;1.70;;
18793;SDS011;29610;49.022;12.114;2023-02-18T10:59:30;8.47;;;1.90;;
18793;SDS011;29610;49.022;12.114;2023-02-18T11:02:02;6.00;;;1.37;;
18793;SDS011;29610;49.022;12.114;2023-02-18T11:04:43;7.20;;;1.70;;
18793;SDS011;29610;49.022;12.114;2023-02-18T11:07:14;7.20;;;1.90;;
18793;SDS011;29610;49.022;12.114;2023-02-18T11:09:47;8.23;;;1.73;;
18793;SDS011;29610;49.022;12.114;2023-02-18T11:12:21;7.00;;;1.70;;
18793;SDS011;29610;49.022;12.114;2023-02-18T11:15:03;7.80;;;1.60;;
18793;SDS011;29610;49.022;12.114;2023-02-18T11:17:44;10.23;;;1.57;;
18793;SDS011;29610;49.022;12.114;2023-02-18T11:20:26;6.00;;;1.30;;
18793;SDS011;29610;49.022;12.114;2023-02-18T11:23:12;6.47;;;1.53;;
18793;SDS011;29610;49.022;12.114;2023-02-18T11:25:52;7.17;;;2.20;;
18793;SDS011;29610;49.022;12.114;2023-02-18T11:28:28;7.10;;;1.70;;
18793;SDS011;29610;49.022;12.114;2023-02-18T11:31:07;7.13;;;1.80;;
18793;SDS011;29610;49.022;12.114;2023-02-18T11:33:46;6.93;;;1.70;;
18793;SDS011;29610;49.022;12.114;2023-02-18T11:36:23;7.33;;;2.33;;
18793;SDS011;29610;49.022;12.114;2023-02-18T11:38:57;7.60;;;1.50;;
18793;SDS011;29610;49.022;12.114;2023-02-18T11:41:32;7.70;;;1.93;;
18793;SDS011;29610;49.022;12.114;2023-02-18T11:44:06;6.27;;;1.60;;
18793;SDS011;29610;49.022;12.114;2023-02-18T11:46:58;6.77;;;1.60;;
18793;SDS011;29610;49.022;12.114;2023-02-18T11:49:31;6.90;;;1.70;;
18793;SDS011;29610;49.022;12.114;2023-02-18T11:52:03;7.17;;;2.03;;
18793;SDS011;29610;49.022;12.114;2023-02-18T11:54:46;6.80;;;1.90;;
18793;SDS011;29610;49.022;12.114;2023-02-18T11:57:29;7.60;;;1.77;;
18793;SDS011;29610;49.022;12.114;2023-02-18T12:00:00;6.80;;;1.60;;
18793;SDS011;29610;49.022;12.114;2023-02-18T12:02:41;6.87;;;2.00;;
18793;SDS011;29610;49.022;12.114;2023-02-18T12:05:13;7.10;;;1.90;;
18793;SDS011;29610;49.022;12.114;2023-02-18T12:07:48;9.47;;;2.00;;
18793;SDS011;29610;49.022;12.114;2023-02-18T12:10:24;8.13;;;2.60;;
18793;SDS011;29610;49.022;12.114;2023-02-18T12:13:00;8.23;;;2.50;;
18793;SDS011;29610;49.022;12.114;2023-02-18T12:15:40;8.50;;;2.07;;
18793;SDS011;29610;49.022;12.114;2023-02-18T12:18:28;7.20;;;1.60;;
18793;SDS011;29610;49.022;12.114;2023-02-18T12:23:59;7.73;;;2.17;;
18793;SDS011;29610;49.022;12.114;2023-02-18T12:26:43;6.77;;;1.30;;
18793;SDS011;29610;49.022;12.114;2023-02-18T12:29:28;8.30;;;2.13;;
18793;SDS011;29610;49.022;12.114;2023-02-18T12:32:17;7.50;;;1.40;;
18793;SDS011;29610;49.022;12.114;2023-02-18T12:35:09;7.30;;;1.40;;
18793;SDS011;29610;49.022;12.114;2023-02-18T12:41:20;6.30;;;1.80;;
18793;SDS011;29610;49.022;12.114;2023-02-18T12:44:19;7.87;;;2.03;;
18793;SDS011;29610;49.022;12.114;2023-02-18T12:53:19;6.90;;;1.70;;
18793;SDS011;29610;49.022;12.114;2023-02-18T12:56:30;9.20;;;3.47;;
18793;SDS011;29610;49.022;12.114;2023-02-18T12:59:17;7.50;;;1.80;;
18793;SDS011;29610;49.022;12.114;2023-02-18T13:02:16;7.40;;;1.93;;
18793;SDS011;29610;49.022;12.114;2023-02-18T13:05:10;6.00;;;1.30;;
18793;SDS011;29610;49.022;12.114;2023-02-18T13:08:16;7.10;;;1.87;;
18793;SDS011;29610;49.022;12.114;2023-02-18T13:11:08;11.00;;;2.27;;
18793;SDS011;29610;49.022;12.114;2023-02-18T13:14:01;6.43;;;1.60;;
18793;SDS011;29610;49.022;12.114;2023-02-18T13:16:38;8.33;;;1.80;;
18793;SDS011;29610;49.022;12.114;2023-02-18T13:19:13;6.50;;;1.73;;
18793;SDS011;29610;49.022;12.114;2023-02-18T13:21:50;12.43;;;2.40;;
18793;SDS011;29610;49.022;12.114;2023-02-18T13:24:26;6.70;;;1.90;;
18793;SDS011;29610;49.022;12.114;2023-02-18T13:27:04;6.90;;;1.90;;
18793;SDS011;29610;49.022;12.114;2023-02-18T13:29:44;6.93;;;1.87;;
18793;SDS011;29610;49.022;12.114;2023-02-18T13:32:24;7.90;;;1.40;;
18793;SDS011;29610;49.022;12.114;2023-02-18T13:35:04;8.90;;;2.00;;
18793;SDS011;29610;49.022;12.114;2023-02-18T13:37:51;6.80;;;1.57;;
18793;SDS011;29610;49.022;12.114;2023-02-18T13:40:39;8.77;;;1.90;;
18793;SDS011;29610;49.022;12.114;2023-02-18T13:43:18;8.47;;;1.80;;
18793;SDS011;29610;49.022;12.114;2023-02-18T13:46:04;9.73;;;1.60;;
18793;SDS011;29610;49.022;12.114;2023-02-18T13:48:44;6.10;;;1.33;;
18793;SDS011;29610;49.022;12.114;2023-02-18T13:51:26;9.63;;;1.93;;
18793;SDS011;29610;49.022;12.114;2023-02-18T13:54:00;7.30;;;2.27;;
18793;SDS011;29610;49.022;12.114;2023-02-18T13:56:39;5.87;;;1.30;;
18793;SDS011;29610;49.022;12.114;2023-02-18T13:59:16;7.40;;;1.47;;
18793;SDS011;29610;49.022;12.114;2023-02-18T14:01:49;7.80;;;1.70;;
18793;SDS011;29610;49.022;12.114;2023-02-18T14:04:35;8.03;;;2.17;;
18793;SDS011;29610;49.022;12.114;2023-02-18T14:07:25;6.93;;;1.60;;
18793;SDS011;29610;49.022;12.114;2023-02-18T14:13:00;5.93;;;1.40;;
18793;SDS011;29610;49.022;12.114;2023-02-18T14:15:54;6.13;;;1.57;;
18793;SDS011;29610;49.022;12.114;2023-02-18T14:18:53;6.57;;;1.90;;
18793;SDS011;29610;49.022;12.114;2023-02-18T14:21:38;6.53;;;1.70;;
18793;SDS011;29610;49.022;12.114;2023-02-18T14:24:10;7.60;;;2.10;;
18793;SDS011;29610;49.022;12.114;2023-02-18T14:26:42;7.30;;;1.77;;
18793;SDS011;29610;49.022;12.114;2023-02-18T14:29:16;7.33;;;1.73;;
18793;SDS011;29610;49.022;12.114;2023-02-18T14:31:58;5.67;;;1.33;;
18793;SDS011;29610;49.022;12.114;2023-02-18T14:34:44;6.10;;;1.37;;
18793;SDS011;29610;49.022;12.114;2023-02-18T14:37:51;6.10;;;1.47;;
18793;SDS011;29610;49.022;12.114;2023-02-18T14:40:51;6.73;;;1.63;;
18793;SDS011;29610;49.022;12.114;2023-02-18T14:43:43;7.00;;;1.90;;
18793;SDS011;29610;49.022;12.114;2023-02-18T14:46:39;8.63;;;2.00;;
18793;SDS011;29610;49.022;12.114;2023-02-18T14:49:29;6.80;;;1.70;;
18793;SDS011;29610;49.022;12.114;2023-02-18T14:52:11;5.53;;;1.20;;
18793;SDS011;29610;49.022;12.114;2023-02-18T14:54:50;7.97;;;1.60;;
18793;SDS011;29610;49.022;12.114;2023-02-18T14:57:18;7.27;;;1.83;;
18793;SDS011;29610;49.022;12.114;2023-02-18T14:59:58;7.30;;;1.87;;
18793;SDS011;29610;49.022;12.114;2023-02-18T15:02:28;6.27;;;1.43;;
18793;SDS011;29610;49.022;12.114;2023-02-18T15:05:09;6.60;;;1.70;;
18793;SDS011;29610;49.022;12.114;2023-02-18T15:07:45;8.90;;;2.80;;
18793;SDS011;29610;49.022;12.114;2023-02-18T15:10:25;8.30;;;2.50;;
18793;SDS011;29610;49.022;12.114;2023-02-18T15:13:08;8.60;;;3.40;;
18793;SDS011;29610;49.022;12.114;2023-02-18T15:15:46;7.40;;;2.43;;
18793;SDS011;29610;49.022;12.114;2023-02-18T15:18:21;7.23;;;2.57;;
18793;SDS011;29610;49.022;12.114;2023-02-18T15:21:00;7.30;;;2.30;;
18793;SDS011;29610;49.022;12.114;2023-02-18T15:23:33;6.50;;;2.17;;
18793;SDS011;29610;49.022;12.114;2023-02-18T15:26:06;8.00;;;1.80;;
18793;SDS011;29610;49.022;12.114;2023-02-18T15:28:49;6.63;;;1.97;;
18793;SDS011;29610;49.022;12.114;2023-02-18T15:31:29;5.73;;;1.50;;
18793;SDS011;29610;49.022;12.114;2023-02-18T15:34:28;7.20;;;1.97;;